Time;durP1;ratioP1;P1;durP2;ratioP2;P2;SDS_P1;SDS_P2;PMS_P1;PMS_P2;Temp;Humidity;BMP_temperature;BMP_pressure;BME280_temperature;BME280_humidity;BME280_pressure;Samples;Min_cycle;Max_cycle;Signal;HPM_P1;HPM_P2
2023/08/18 00:00:42;;;;;;;18.85;14.70;;;;;;;;;;4935522;28;20091;-71
2023/08/18 00:03:08;;;;;;;16.75;14.15;;;;;;;;;;4936168;29;20040;-73
2023/08/18 00:05:35;;;;;;;20.63;15.45;;;;;;;;;;4936270;29;20116;-71
2023/08/18 00:08:01;;;;;;;17.55;15.18;;;;;;;;;;4950708;28;20490;-72
2023/08/18 00:10:27;;;;;;;17.70;15.90;;;;;;;;;;4948160;28;20067;-71
2023/08/18 00:12:53;;;;;;;17.45;15.50;;;;;;;;;;4949294;29;20059;-72
2023/08/18 00:15:19;;;;;;;21.35;14.95;;;;;;;;;;4934611;29;20456;-72
2023/08/18 00:17:46;;;;;;;17.90;15.35;;;;;;;;;;4949025;29;20094;-71
2023/08/18 00:20:13;;;;;;;19.67;15.20;;;;;;;;;;4932869;29;20103;-71
2023/08/18 00:22:39;;;;;;;17.52;14.65;;;;;;;;;;4932210;29;20090;-71
2023/08/18 00:25:06;;;;;;;17.80;15.02;;;;;;;;;;4929257;29;20042;-71
2023/08/18 00:27:32;;;;;;;18.70;15.32;;;;;;;;;;4932537;29;20382;-70
2023/08/18 00:29:58;;;;;;;19.08;15.77;;;;;;;;;;4943695;29;20370;-70
2023/08/18 00:32:25;;;;;;;19.67;15.80;;;;;;;;;;4932683;29;20075;-70
2023/08/18 00:34:52;;;;;;;21.35;16.15;;;;;;;;;;4940330;29;20348;-71
2023/08/18 00:37:18;;;;;;;22.25;16.05;;;;;;;;;;4948105;28;20039;-71
2023/08/18 00:39:44;;;;;;;20.02;16.40;;;;;;;;;;4948009;28;20047;-71
2023/08/18 00:42:10;;;;;;;19.80;16.27;;;;;;;;;;4948148;28;20027;-71
2023/08/18 00:44:36;;;;;;;18.10;15.88;;;;;;;;;;4933991;29;20098;-71
2023/08/18 00:47:03;;;;;;;19.98;16.15;;;;;;;;;;4935746;29;20047;-71
2023/08/18 00:49:30;;;;;;;19.65;15.70;;;;;;;;;;4936248;29;20055;-71
2023/08/18 00:51:57;;;;;;;19.40;16.33;;;;;;;;;;4944861;28;20051;-72
2023/08/18 00:54:24;;;;;;;20.20;16.63;;;;;;;;;;4945668;28;20028;-71
2023/08/18 00:56:50;;;;;;;19.63;16.73;;;;;;;;;;4931564;29;20035;-72
2023/08/18 00:59:16;;;;;;;20.80;16.98;;;;;;;;;;4933704;29;20047;-72
2023/08/18 01:01:42;;;;;;;20.67;17.75;;;;;;;;;;4944870;28;20124;-71
2023/08/18 01:04:09;;;;;;;25.10;17.52;;;;;;;;;;4928848;29;20162;-71
2023/08/18 01:06:38;;;;;;;21.30;17.70;;;;;;;;;;4931242;29;20160;-72
2023/08/18 01:09:05;;;;;;;24.00;18.13;;;;;;;;;;4947141;28;20050;-72
2023/08/18 01:11:35;;;;;;;23.17;17.35;;;;;;;;;;4945027;28;20040;-72
2023/08/18 01:14:04;;;;;;;20.40;17.77;;;;;;;;;;4929698;29;20429;-72
2023/08/18 01:16:30;;;;;;;23.58;18.65;;;;;;;;;;4932656;29;20075;-71
2023/08/18 01:18:56;;;;;;;25.33;19.13;;;;;;;;;;4948631;28;20050;-72
2023/08/18 01:21:24;;;;;;;23.08;18.45;;;;;;;;;;4935567;28;20067;-70
2023/08/18 01:23:50;;;;;;;23.38;19.52;;;;;;;;;;4945850;28;20032;-70
2023/08/18 01:26:19;;;;;;;28.00;19.77;;;;;;;;;;4947831;28;20031;-72
2023/08/18 01:28:45;;;;;;;23.08;18.88;;;;;;;;;;4933791;29;20036;-71
2023/08/18 01:31:14;;;;;;;24.20;19.90;;;;;;;;;;4923360;29;20079;-74
2023/08/18 01:33:49;;;;;;;26.95;19.33;;;;;;;;;;4946278;28;20359;-71
2023/08/18 01:36:20;;;;;;;27.67;20.98;;;;;;;;;;4934080;29;20032;-71
2023/08/18 01:38:47;;;;;;;29.42;20.40;;;;;;;;;;4932846;29;20027;-71
2023/08/18 01:41:15;;;;;;;27.25;20.95;;;;;;;;;;4931072;29;20155;-73
2023/08/18 01:43:41;;;;;;;29.52;20.98;;;;;;;;;;4931313;29;20040;-71
2023/08/18 01:46:07;;;;;;;27.15;21.23;;;;;;;;;;4943884;28;20268;-70
2023/08/18 01:48:34;;;;;;;26.30;21.83;;;;;;;;;;4946867;28;20031;-70
2023/08/18 01:51:00;;;;;;;24.80;20.52;;;;;;;;;;4946290;28;20042;-71
2023/08/18 01:53:26;;;;;;;30.33;21.85;;;;;;;;;;4947193;29;20031;-71
2023/08/18 01:55:52;;;;;;;29.27;21.35;;;;;;;;;;4932109;29;20055;-72
2023/08/18 01:58:18;;;;;;;32.55;21.02;;;;;;;;;;4947454;28;20038;-72
2023/08/18 02:00:44;;;;;;;26.33;21.60;;;;;;;;;;4943883;28;20035;-72
2023/08/18 02:03:10;;;;;;;26.13;20.50;;;;;;;;;;4925911;29;20067;-72
2023/08/18 02:05:39;;;;;;;29.77;21.48;;;;;;;;;;4929804;29;20031;-70
2023/08/18 02:08:06;;;;;;;25.83;20.95;;;;;;;;;;4946399;29;20066;-71
2023/08/18 02:10:33;;;;;;;26.75;21.60;;;;;;;;;;4937968;29;20028;-71
2023/08/18 02:12:59;;;;;;;30.65;21.67;;;;;;;;;;4931644;29;20079;-71
2023/08/18 02:15:25;;;;;;;27.30;21.55;;;;;;;;;;4952305;28;20035;-71
2023/08/18 02:17:51;;;;;;;28.35;21.17;;;;;;;;;;4934520;29;20027;-70
2023/08/18 02:20:17;;;;;;;23.85;19.98;;;;;;;;;;4948127;28;20046;-70
2023/08/18 02:22:43;;;;;;;28.58;21.08;;;;;;;;;;4946580;28;20070;-71
2023/08/18 02:25:09;;;;;;;27.63;21.63;;;;;;;;;;4935871;29;20093;-71
2023/08/18 02:27:36;;;;;;;31.90;21.70;;;;;;;;;;4947159;28;20028;-71
2023/08/18 02:30:03;;;;;;;27.65;21.38;;;;;;;;;;4943765;28;20056;-71
2023/08/18 02:32:29;;;;;;;31.05;21.20;;;;;;;;;;4932575;29;20040;-71
2023/08/18 02:34:55;;;;;;;30.83;21.27;;;;;;;;;;4942664;28;20043;-71
2023/08/18 02:37:22;;;;;;;27.60;21.80;;;;;;;;;;4945006;28;20402;-71
2023/08/18 02:39:48;;;;;;;25.90;20.40;;;;;;;;;;4925309;29;20035;-71
2023/08/18 02:42:14;;;;;;;28.00;20.60;;;;;;;;;;4946906;28;20028;-71
2023/08/18 02:44:40;;;;;;;27.05;21.08;;;;;;;;;;4946667;28;20027;-71
2023/08/18 02:47:06;;;;;;;27.70;20.17;;;;;;;;;;4944732;28;20040;-71
2023/08/18 02:49:32;;;;;;;25.42;19.60;;;;;;;;;;4945030;28;20115;-71
2023/08/18 02:51:58;;;;;;;27.27;20.98;;;;;;;;;;4946306;28;20036;-71
2023/08/18 02:54:25;;;;;;;25.40;20.80;;;;;;;;;;4945222;28;20057;-70
2023/08/18 02:56:51;;;;;;;30.10;19.75;;;;;;;;;;4943977;28;20032;-72
2023/08/18 02:59:17;;;;;;;30.70;20.00;;;;;;;;;;4914565;29;20081;-72
2023/08/18 03:01:44;;;;;;;25.02;19.35;;;;;;;;;;4947662;28;20036;-73
2023/08/18 03:04:12;;;;;;;30.30;20.38;;;;;;;;;;4948734;29;20044;-74
2023/08/18 03:06:38;;;;;;;27.27;20.77;;;;;;;;;;4948280;28;20122;-72
2023/08/18 03:09:04;;;;;;;29.75;20.85;;;;;;;;;;4931766;29;20031;-73
2023/08/18 03:11:30;;;;;;;30.80;21.27;;;;;;;;;;4946925;28;20099;-71
2023/08/18 03:13:56;;;;;;;29.17;21.38;;;;;;;;;;4957545;28;20680;-71
2023/08/18 03:16:23;;;;;;;30.38;21.15;;;;;;;;;;4953017;28;20048;-71
2023/08/18 03:18:49;;;;;;;27.98;20.13;;;;;;;;;;4916306;29;20479;-72
2023/08/18 03:21:15;;;;;;;27.48;20.50;;;;;;;;;;4938193;28;20370;-73
2023/08/18 03:23:42;;;;;;;30.98;19.52;;;;;;;;;;4933368;29;20039;-72
2023/08/18 03:26:08;;;;;;;25.13;18.95;;;;;;;;;;4935589;29;20055;-73
2023/08/18 03:28:37;;;;;;;28.45;20.15;;;;;;;;;;4943801;28;20035;-72
2023/08/18 03:31:04;;;;;;;30.27;20.75;;;;;;;;;;4938769;29;20036;-72
2023/08/18 03:33:32;;;;;;;34.35;21.02;;;;;;;;;;4934629;29;20102;-72
2023/08/18 03:35:59;;;;;;;32.05;20.10;;;;;;;;;;4949343;28;20493;-72
2023/08/18 03:38:26;;;;;;;27.45;20.80;;;;;;;;;;4945893;29;20042;-72
2023/08/18 03:40:57;;;;;;;30.67;20.73;;;;;;;;;;4927969;29;20529;-72
2023/08/18 03:43:24;;;;;;;27.02;20.58;;;;;;;;;;4946344;28;20119;-72
2023/08/18 03:45:50;;;;;;;32.17;19.80;;;;;;;;;;4932729;29;20035;-71
2023/08/18 03:48:16;;;;;;;31.05;20.35;;;;;;;;;;4935893;29;20063;-71
2023/08/18 03:50:43;;;;;;;32.55;21.63;;;;;;;;;;4952291;28;20051;-72
2023/08/18 03:53:10;;;;;;;32.92;20.67;;;;;;;;;;4951984;28;20565;-72
2023/08/18 03:55:36;;;;;;;33.00;21.20;;;;;;;;;;4957525;28;20111;-72
2023/08/18 03:58:02;;;;;;;27.55;20.00;;;;;;;;;;4946218;28;20435;-72
2023/08/18 04:00:28;;;;;;;30.48;19.88;;;;;;;;;;4953860;28;20074;-72
2023/08/18 04:02:54;;;;;;;29.48;19.83;;;;;;;;;;4949131;28;20102;-73
2023/08/18 04:05:21;;;;;;;27.60;20.40;;;;;;;;;;4949127;29;20190;-71
2023/08/18 04:07:47;;;;;;;30.15;20.15;;;;;;;;;;4948019;28;20087;-73
2023/08/18 04:10:13;;;;;;;28.73;21.05;;;;;;;;;;4954493;28;20035;-71
2023/08/18 04:12:40;;;;;;;31.63;20.20;;;;;;;;;;4941337;28;20028;-71
2023/08/18 04:15:07;;;;;;;26.92;19.90;;;;;;;;;;4936692;28;20101;-71
2023/08/18 04:17:33;;;;;;;34.65;20.70;;;;;;;;;;4937366;29;20023;-71
2023/08/18 04:19:59;;;;;;;28.83;20.45;;;;;;;;;;4944144;28;20123;-72
2023/08/18 04:22:25;;;;;;;27.02;20.20;;;;;;;;;;4946997;28;20481;-71
2023/08/18 04:24:52;;;;;;;32.15;20.95;;;;;;;;;;4947823;28;20123;-72
2023/08/18 04:27:18;;;;;;;31.83;21.23;;;;;;;;;;4944957;28;20071;-72
2023/08/18 04:29:44;;;;;;;30.15;21.08;;;;;;;;;;4934955;28;20559;-72
2023/08/18 04:32:11;;;;;;;34.53;22.30;;;;;;;;;;4929786;29;20030;-71
2023/08/18 04:34:38;;;;;;;31.20;21.70;;;;;;;;;;4929970;29;20062;-71
2023/08/18 04:37:04;;;;;;;33.22;22.08;;;;;;;;;;4949345;28;20035;-73
2023/08/18 04:39:30;;;;;;;35.10;22.80;;;;;;;;;;4951556;29;20072;-73
2023/08/18 04:41:57;;;;;;;44.47;23.15;;;;;;;;;;4931848;29;20056;-71
2023/08/18 04:44:25;;;;;;;31.95;22.00;;;;;;;;;;4952387;28;20036;-71
2023/08/18 04:46:51;;;;;;;37.42;24.05;;;;;;;;;;4933819;29;20071;-71
2023/08/18 04:49:23;;;;;;;36.20;24.05;;;;;;;;;;4916114;29;20135;-72
2023/08/18 04:51:49;;;;;;;33.80;23.95;;;;;;;;;;4947458;28;20036;-72
2023/08/18 04:54:17;;;;;;;38.30;24.98;;;;;;;;;;4948098;28;20501;-71
2023/08/18 04:56:44;;;;;;;34.45;24.73;;;;;;;;;;4933683;28;20051;-71
2023/08/18 04:59:10;;;;;;;35.47;24.70;;;;;;;;;;4911226;29;21588;-71
2023/08/18 05:01:36;;;;;;;34.08;24.77;;;;;;;;;;4943756;28;20036;-72
2023/08/18 05:04:04;;;;;;;35.30;25.65;;;;;;;;;;4947815;28;20553;-71
2023/08/18 05:06:30;;;;;;;41.28;26.98;;;;;;;;;;4947848;28;20034;-71
2023/08/18 05:08:57;;;;;;;37.47;26.08;;;;;;;;;;4945902;29;20173;-71
2023/08/18 05:11:23;;;;;;;39.47;25.00;;;;;;;;;;4952692;28;20076;-71
2023/08/18 05:13:49;;;;;;;37.83;25.65;;;;;;;;;;4943195;28;20039;-70
2023/08/18 05:16:15;;;;;;;38.92;25.85;;;;;;;;;;4930747;29;20063;-71
2023/08/18 05:18:42;;;;;;;41.17;27.15;;;;;;;;;;4949700;28;20115;-72
2023/08/18 05:21:08;;;;;;;36.67;26.90;;;;;;;;;;4930657;29;20162;-73
2023/08/18 05:23:35;;;;;;;42.20;26.73;;;;;;;;;;4943971;28;21028;-73
2023/08/18 05:26:01;;;;;;;40.25;26.50;;;;;;;;;;4935166;29;20063;-70
2023/08/18 05:28:32;;;;;;;44.35;27.30;;;;;;;;;;4937856;29;20032;-71
2023/08/18 05:30:58;;;;;;;;;;;;;;;;;;4933139;29;20291;-71
2023/08/18 05:33:24;;;;;;;41.25;27.33;;;;;;;;;;4948881;28;20368;-71
2023/08/18 05:35:51;;;;;;;44.20;27.75;;;;;;;;;;4951454;28;20035;-72
2023/08/18 05:38:17;;;;;;;39.03;27.23;;;;;;;;;;4946452;28;20067;-71
2023/08/18 05:40:45;;;;;;;40.42;27.75;;;;;;;;;;4947558;28;20063;-72
2023/08/18 05:43:15;;;;;;;36.75;26.38;;;;;;;;;;4932396;29;20028;-71
2023/08/18 05:45:42;;;;;;;43.80;27.77;;;;;;;;;;4932084;29;20035;-71
2023/08/18 05:48:08;;;;;;;40.83;26.98;;;;;;;;;;4935821;29;20055;-72
2023/08/18 05:50:34;;;;;;;39.90;26.90;;;;;;;;;;4955243;28;20564;-70
2023/08/18 05:53:04;;;;;;;37.58;27.13;;;;;;;;;;4945887;29;20042;-70
2023/08/18 05:55:30;;;;;;;37.60;26.70;;;;;;;;;;4947160;28;20058;-71
2023/08/18 05:57:58;;;;;;;35.75;27.23;;;;;;;;;;4933902;29;20031;-72
2023/08/18 06:00:25;;;;;;;36.50;27.30;;;;;;;;;;4932893;29;20094;-70
2023/08/18 06:02:51;;;;;;;39.22;26.27;;;;;;;;;;4943243;28;20111;-71
2023/08/18 06:05:17;;;;;;;43.17;27.08;;;;;;;;;;4944402;28;20119;-70
2023/08/18 06:07:43;;;;;;;39.05;26.08;;;;;;;;;;4942035;28;20060;-71
2023/08/18 06:10:11;;;;;;;40.45;26.35;;;;;;;;;;4935605;29;20141;-70
2023/08/18 06:12:37;;;;;;;33.38;25.85;;;;;;;;;;4946091;28;20133;-72
2023/08/18 06:15:04;;;;;;;35.40;25.65;;;;;;;;;;4936158;29;20111;-78
2023/08/18 06:17:30;;;;;;;35.35;24.85;;;;;;;;;;4940170;28;20043;-71
2023/08/18 06:19:57;;;;;;;36.88;26.27;;;;;;;;;;4934685;29;20056;-70
2023/08/18 06:22:23;;;;;;;34.08;24.15;;;;;;;;;;4947171;28;20043;-71
2023/08/18 06:24:49;;;;;;;33.90;25.48;;;;;;;;;;4925131;29;20103;-70
2023/08/18 06:27:15;;;;;;;37.22;26.30;;;;;;;;;;4943266;28;20039;-71
2023/08/18 06:29:41;;;;;;;36.03;25.85;;;;;;;;;;4944838;28;20114;-71
2023/08/18 06:32:07;;;;;;;37.10;25.67;;;;;;;;;;4931141;29;20091;-71
2023/08/18 06:34:33;;;;;;;35.25;25.58;;;;;;;;;;4946092;29;20036;-71
2023/08/18 06:37:00;;;;;;;37.63;25.98;;;;;;;;;;4931025;29;20110;-71
2023/08/18 06:39:26;;;;;;;35.00;25.45;;;;;;;;;;4932110;29;20032;-71
2023/08/18 06:41:52;;;;;;;32.53;24.77;;;;;;;;;;4933176;29;20106;-71
2023/08/18 06:44:18;;;;;;;32.40;22.65;;;;;;;;;;4928216;29;20020;-70
2023/08/18 06:46:46;;;;;;;29.48;22.45;;;;;;;;;;4928145;29;20059;-70
2023/08/18 06:49:12;;;;;;;25.70;20.52;;;;;;;;;;4946215;28;20167;-70
2023/08/18 06:51:38;;;;;;;27.90;22.42;;;;;;;;;;4927540;29;20038;-71
2023/08/18 06:54:04;;;;;;;26.85;21.33;;;;;;;;;;4935922;29;20070;-71
2023/08/18 06:56:30;;;;;;;26.35;20.90;;;;;;;;;;4933077;29;20188;-71
2023/08/18 06:58:56;;;;;;;25.73;19.77;;;;;;;;;;4950774;29;20039;-71
2023/08/18 07:01:22;;;;;;;24.75;19.17;;;;;;;;;;4932524;29;20047;-70
2023/08/18 07:03:49;;;;;;;26.70;19.00;;;;;;;;;;4949714;28;20130;-70
2023/08/18 07:06:15;;;;;;;23.75;18.92;;;;;;;;;;4935679;29;20505;-71
2023/08/18 07:08:41;;;;;;;25.67;19.38;;;;;;;;;;4950917;28;20067;-71
2023/08/18 07:11:07;;;;;;;34.70;19.90;;;;;;;;;;4952058;28;20029;-69
2023/08/18 07:13:35;;;;;;;24.30;19.83;;;;;;;;;;4946984;28;20033;-70
2023/08/18 07:16:02;;;;;;;26.48;20.13;;;;;;;;;;4948653;29;20385;-71
2023/08/18 07:18:28;;;;;;;27.63;20.08;;;;;;;;;;4934824;29;20044;-71
2023/08/18 07:20:56;;;;;;;28.08;21.25;;;;;;;;;;4936535;29;20030;-71
2023/08/18 07:23:22;;;;;;;28.83;21.75;;;;;;;;;;4949229;28;20032;-71
2023/08/18 07:25:48;;;;;;;32.85;23.63;;;;;;;;;;4932445;28;20028;-71
2023/08/18 07:28:14;;;;;;;29.98;22.30;;;;;;;;;;4932799;29;20545;-72
2023/08/18 07:30:40;;;;;;;33.42;22.30;;;;;;;;;;4945148;28;20151;-71
2023/08/18 07:33:06;;;;;;;31.90;21.70;;;;;;;;;;4934377;29;20111;-71
2023/08/18 07:35:33;;;;;;;31.65;23.23;;;;;;;;;;4952515;28;20119;-71
2023/08/18 07:37:59;;;;;;;31.48;21.10;;;;;;;;;;4930900;29;20063;-71
2023/08/18 07:40:27;;;;;;;30.40;21.10;;;;;;;;;;4931388;29;20051;-70
2023/08/18 07:42:53;;;;;;;27.45;21.88;;;;;;;;;;4932663;29;20039;-70
2023/08/18 07:45:19;;;;;;;30.20;22.08;;;;;;;;;;4951403;28;20119;-70
2023/08/18 07:47:46;;;;;;;33.45;23.30;;;;;;;;;;4925115;29;20052;-69
2023/08/18 07:50:13;;;;;;;31.98;22.52;;;;;;;;;;4946660;28;20079;-70
2023/08/18 07:52:40;;;;;;;30.45;21.63;;;;;;;;;;4950563;28;20046;-70
2023/08/18 07:55:07;;;;;;;28.02;20.98;;;;;;;;;;4949984;28;20094;-71
2023/08/18 07:57:34;;;;;;;27.60;21.60;;;;;;;;;;4948770;29;20167;-70
2023/08/18 08:00:07;;;;;;;26.45;20.83;;;;;;;;;;4933036;29;20047;-70
2023/08/18 08:02:38;;;;;;;32.83;21.38;;;;;;;;;;4934736;29;20028;-71
2023/08/18 08:05:05;;;;;;;27.55;20.58;;;;;;;;;;4946549;28;20397;-70
2023/08/18 08:07:33;;;;;;;28.88;20.17;;;;;;;;;;4913939;29;20062;-69
2023/08/18 08:10:03;;;;;;;29.52;19.80;;;;;;;;;;4924730;29;20042;-70
2023/08/18 08:12:30;;;;;;;28.15;19.15;;;;;;;;;;4948626;28;20058;-71
2023/08/18 08:14:56;;;;;;;30.58;18.63;;;;;;;;;;4934611;29;20039;-71
2023/08/18 08:17:23;;;;;;;21.17;17.45;;;;;;;;;;4934283;29;20027;-71
2023/08/18 08:19:50;;;;;;;26.25;17.88;;;;;;;;;;4933793;29;20015;-70
2023/08/18 08:22:16;;;;;;;24.55;17.90;;;;;;;;;;4933501;29;20039;-70
2023/08/18 08:24:45;;;;;;;28.13;18.10;;;;;;;;;;4938064;28;20536;-71
2023/08/18 08:27:15;;;;;;;24.77;17.00;;;;;;;;;;4945909;28;20039;-71
2023/08/18 08:29:41;;;;;;;22.55;17.40;;;;;;;;;;4931356;29;20135;-71
2023/08/18 08:32:07;;;;;;;27.75;18.35;;;;;;;;;;4941036;29;20088;-71
2023/08/18 08:34:33;;;;;;;28.15;18.23;;;;;;;;;;4943059;28;20035;-71
2023/08/18 08:36:59;;;;;;;26.45;18.30;;;;;;;;;;4948613;29;20055;-71
2023/08/18 08:39:25;;;;;;;26.90;18.70;;;;;;;;;;4939204;29;20035;-71
2023/08/18 08:41:51;;;;;;;22.95;16.52;;;;;;;;;;4934348;29;20035;-71
2023/08/18 08:44:18;;;;;;;26.35;18.50;;;;;;;;;;4934465;29;20401;-72
2023/08/18 08:46:44;;;;;;;26.05;18.75;;;;;;;;;;4933912;29;20225;-71
2023/08/18 08:49:11;;;;;;;26.13;17.60;;;;;;;;;;4948478;29;20031;-70
2023/08/18 08:51:40;;;;;;;25.30;16.92;;;;;;;;;;4948593;29;20042;-71
2023/08/18 08:54:08;;;;;;;23.98;17.10;;;;;;;;;;4933180;29;20211;-71
2023/08/18 08:56:35;;;;;;;26.27;17.30;;;;;;;;;;4932700;29;20043;-70
2023/08/18 08:59:01;;;;;;;25.45;18.33;;;;;;;;;;4933263;29;20024;-71
2023/08/18 09:01:28;;;;;;;23.15;17.02;;;;;;;;;;4947893;28;20028;-70
2023/08/18 09:03:56;;;;;;;21.75;17.05;;;;;;;;;;4944643;29;20042;-71
2023/08/18 09:06:22;;;;;;;23.90;17.23;;;;;;;;;;4947432;29;20368;-72
2023/08/18 09:08:48;;;;;;;23.73;16.60;;;;;;;;;;4947986;29;20039;-71
2023/08/18 09:11:15;;;;;;;22.05;16.67;;;;;;;;;;4945929;28;20611;-72
2023/08/18 09:13:42;;;;;;;20.40;15.32;;;;;;;;;;4959434;28;20066;-71
2023/08/18 09:16:08;;;;;;;20.42;15.80;;;;;;;;;;4933852;28;20506;-72
2023/08/18 09:18:34;;;;;;;20.13;14.30;;;;;;;;;;4931986;29;20064;-72
2023/08/18 09:21:04;;;;;;;19.00;13.98;;;;;;;;;;4931797;29;20032;-72
2023/08/18 09:23:30;;;;;;;26.13;16.08;;;;;;;;;;4933488;29;20075;-71
2023/08/18 09:26:00;;;;;;;21.30;14.50;;;;;;;;;;4944330;29;20390;-70
2023/08/18 09:28:26;;;;;;;23.10;15.23;;;;;;;;;;4927835;29;20044;-72
2023/08/18 09:30:53;;;;;;;22.08;15.30;;;;;;;;;;4923972;29;20445;-70
2023/08/18 09:33:23;;;;;;;21.85;16.05;;;;;;;;;;4940346;29;20061;-70
2023/08/18 09:35:57;;;;;;;21.73;15.00;;;;;;;;;;4966292;28;20043;-70
2023/08/18 09:38:25;;;;;;;20.90;14.40;;;;;;;;;;4944451;28;20099;-71
2023/08/18 09:40:55;;;;;;;19.88;13.80;;;;;;;;;;4932960;29;20043;-70
2023/08/18 09:43:23;;;;;;;22.48;14.05;;;;;;;;;;4932622;29;20027;-71
2023/08/18 09:45:50;;;;;;;23.83;14.95;;;;;;;;;;4947845;29;20493;-70
2023/08/18 09:48:16;;;;;;;21.17;14.00;;;;;;;;;;4931220;29;20071;-71
2023/08/18 09:50:45;;;;;;;20.60;13.70;;;;;;;;;;4931277;29;20490;-71
2023/08/18 09:53:14;;;;;;;24.10;14.30;;;;;;;;;;4931797;29;20032;-72
2023/08/18 09:55:46;;;;;;;19.95;13.80;;;;;;;;;;4936917;29;20028;-71
2023/08/18 09:58:20;;;;;;;19.10;12.70;;;;;;;;;;4945887;29;20468;-73
2023/08/18 10:00:54;;;;;;;18.92;12.43;;;;;;;;;;4947453;28;20027;-70
2023/08/18 10:03:22;;;;;;;19.80;12.55;;;;;;;;;;4937039;29;20127;-71
2023/08/18 10:05:48;;;;;;;19.50;14.15;;;;;;;;;;4924491;29;20050;-70
2023/08/18 10:08:14;;;;;;;18.60;13.68;;;;;;;;;;4916862;29;20046;-71
2023/08/18 10:10:41;;;;;;;21.48;15.25;;;;;;;;;;4931218;29;20059;-71
2023/08/18 10:13:08;;;;;;;20.92;15.23;;;;;;;;;;4932628;29;20035;-71
2023/08/18 10:15:35;;;;;;;21.88;15.13;;;;;;;;;;4932108;29;20047;-71
2023/08/18 10:18:07;;;;;;;19.02;14.35;;;;;;;;;;4958652;28;20073;-71
2023/08/18 10:20:33;;;;;;;21.42;14.90;;;;;;;;;;4939095;28;20500;-71
2023/08/18 10:22:59;;;;;;;22.38;14.18;;;;;;;;;;4933532;29;20043;-71
2023/08/18 10:25:29;;;;;;;17.80;14.38;;;;;;;;;;4935518;29;20086;-71
2023/08/18 10:27:55;;;;;;;21.27;15.75;;;;;;;;;;4938083;29;20039;-71
2023/08/18 10:30:21;;;;;;;22.80;15.32;;;;;;;;;;4937332;29;20052;-71
2023/08/18 10:32:47;;;;;;;21.80;15.70;;;;;;;;;;4939598;29;20493;-71
2023/08/18 10:35:23;;;;;;;23.08;16.05;;;;;;;;;;4919971;29;20036;-71
2023/08/18 10:37:50;;;;;;;24.95;16.90;;;;;;;;;;4938725;28;20035;-72
2023/08/18 10:40:26;;;;;;;32.85;15.52;;;;;;;;;;4938499;28;20028;-72
2023/08/18 10:42:57;;;;;;;24.55;16.45;;;;;;;;;;4952804;29;20402;-71
2023/08/18 10:45:24;;;;;;;22.83;16.23;;;;;;;;;;4938686;29;20401;-71
2023/08/18 10:47:51;;;;;;;20.92;15.23;;;;;;;;;;4946848;28;20042;-71
2023/08/18 10:50:19;;;;;;;22.35;16.77;;;;;;;;;;4942653;28;20043;-70
2023/08/18 10:52:45;;;;;;;24.67;15.70;;;;;;;;;;4937754;29;20375;-71
2023/08/18 10:55:12;;;;;;;22.35;14.65;;;;;;;;;;4938696;29;20031;-70
2023/08/18 10:57:38;;;;;;;20.27;15.48;;;;;;;;;;4949224;28;20028;-71
2023/08/18 11:00:10;;;;;;;21.83;16.30;;;;;;;;;;4918949;29;20041;-72
2023/08/18 11:02:37;;;;;;;24.05;16.15;;;;;;;;;;4919627;29;20122;-71
2023/08/18 11:05:06;;;;;;;20.58;15.88;;;;;;;;;;4949606;29;20028;-71
2023/08/18 11:07:32;;;;;;;20.65;14.77;;;;;;;;;;4957004;28;20031;-72
2023/08/18 11:09:58;;;;;;;23.90;14.88;;;;;;;;;;4937693;29;20035;-72
2023/08/18 11:12:24;;;;;;;19.15;13.77;;;;;;;;;;4938289;29;20055;-72
2023/08/18 11:14:51;;;;;;;18.60;13.23;;;;;;;;;;4952818;28;20047;-71
2023/08/18 11:17:17;;;;;;;19.83;14.10;;;;;;;;;;4941657;29;20094;-71
2023/08/18 11:19:43;;;;;;;20.23;14.70;;;;;;;;;;4956899;28;20035;-71
2023/08/18 11:22:11;;;;;;;19.42;14.40;;;;;;;;;;4957097;28;20433;-73
2023/08/18 11:24:38;;;;;;;20.42;14.02;;;;;;;;;;4936487;29;20035;-71
2023/08/18 11:27:04;;;;;;;17.95;14.10;;;;;;;;;;4935842;29;20111;-71
2023/08/18 11:29:30;;;;;;;23.05;15.55;;;;;;;;;;4939099;29;20035;-71
2023/08/18 11:31:56;;;;;;;21.13;14.35;;;;;;;;;;4938644;29;20124;-70
2023/08/18 11:34:22;;;;;;;19.13;14.27;;;;;;;;;;4952193;28;20044;-70
2023/08/18 11:36:48;;;;;;;23.20;15.00;;;;;;;;;;4934846;29;20047;-72
2023/08/18 11:39:15;;;;;;;19.40;14.13;;;;;;;;;;4935370;29;20422;-72
2023/08/18 11:41:45;;;;;;;16.52;13.25;;;;;;;;;;4934588;29;20038;-71
2023/08/18 11:44:11;;;;;;;18.75;13.82;;;;;;;;;;4949768;28;20039;-71
2023/08/18 11:46:38;;;;;;;15.52;12.25;;;;;;;;;;4935969;29;20088;-71
2023/08/18 11:49:15;;;;;;;15.38;12.40;;;;;;;;;;4948207;28;20261;-70
2023/08/18 11:51:55;;;;;;;23.45;13.07;;;;;;;;;;4937709;29;20046;-70
2023/08/18 11:54:21;;;;;;;17.92;12.75;;;;;;;;;;4934709;29;20038;-71
2023/08/18 11:56:47;;;;;;;19.80;11.73;;;;;;;;;;4933021;29;20092;-71
2023/08/18 11:59:23;;;;;;;17.50;11.38;;;;;;;;;;4936817;29;20110;-70
2023/08/18 12:01:57;;;;;;;15.10;11.40;;;;;;;;;;4964479;28;20043;-70
2023/08/18 12:04:27;;;;;;;17.60;11.57;;;;;;;;;;4944237;28;20114;-70
2023/08/18 12:06:54;;;;;;;13.82;10.25;;;;;;;;;;4932039;29;20087;-70
2023/08/18 12:09:21;;;;;;;17.33;10.48;;;;;;;;;;4935263;29;20409;-70
2023/08/18 12:11:47;;;;;;;13.27;10.52;;;;;;;;;;4954422;29;20291;-69
2023/08/18 12:14:13;;;;;;;15.15;10.68;;;;;;;;;;4928928;29;20050;-69
2023/08/18 12:16:41;;;;;;;11.55;8.98;;;;;;;;;;4930701;28;20504;-71
2023/08/18 12:19:07;;;;;;;17.50;12.07;;;;;;;;;;4932651;29;20086;-70
2023/08/18 12:21:33;;;;;;;14.05;10.60;;;;;;;;;;4933715;29;20083;-71
2023/08/18 12:24:00;;;;;;;12.43;10.43;;;;;;;;;;4934256;29;20051;-71
2023/08/18 12:26:26;;;;;;;13.73;10.00;;;;;;;;;;4933756;29;20023;-71
2023/08/18 12:28:53;;;;;;;14.25;10.48;;;;;;;;;;4953618;28;20040;-71
2023/08/18 12:31:22;;;;;;;14.05;8.65;;;;;;;;;;4933960;29;20040;-71
2023/08/18 12:33:48;;;;;;;11.45;8.38;;;;;;;;;;4934334;29;20062;-70
2023/08/18 12:36:15;;;;;;;11.60;8.25;;;;;;;;;;4940900;28;20081;-71
2023/08/18 12:38:41;;;;;;;12.98;8.68;;;;;;;;;;4942146;28;20090;-70
2023/08/18 12:41:08;;;;;;;14.77;8.13;;;;;;;;;;4928966;29;20039;-71
2023/08/18 12:43:36;;;;;;;12.43;8.52;;;;;;;;;;4931114;28;20046;-72
2023/08/18 12:46:02;;;;;;;16.42;9.32;;;;;;;;;;4931493;29;20032;-71
2023/08/18 12:48:29;;;;;;;11.07;8.55;;;;;;;;;;4933773;29;20079;-71
2023/08/18 12:50:55;;;;;;;12.07;8.02;;;;;;;;;;4931320;29;20132;-71
2023/08/18 12:53:21;;;;;;;12.55;8.55;;;;;;;;;;4934358;29;20054;-70
2023/08/18 12:55:48;;;;;;;10.80;8.55;;;;;;;;;;4947294;28;20027;-70
2023/08/18 12:58:14;;;;;;;9.60;7.45;;;;;;;;;;4935293;29;20048;-70
2023/08/18 13:00:40;;;;;;;12.02;8.02;;;;;;;;;;4956563;28;20512;-71
2023/08/18 13:03:07;;;;;;;12.30;8.85;;;;;;;;;;4948961;28;20067;-71
2023/08/18 13:05:33;;;;;;;11.27;7.60;;;;;;;;;;4933939;29;20032;-71
2023/08/18 13:07:59;;;;;;;11.38;7.70;;;;;;;;;;4932047;29;20121;-70
2023/08/18 13:10:25;;;;;;;10.38;6.90;;;;;;;;;;4944814;28;20067;-70
2023/08/18 13:12:52;;;;;;;9.32;6.97;;;;;;;;;;4914598;29;20036;-71
2023/08/18 13:15:19;;;;;;;10.88;6.43;;;;;;;;;;4933972;29;20036;-71
2023/08/18 13:17:45;;;;;;;18.95;7.63;;;;;;;;;;4947291;28;20505;-71
2023/08/18 13:20:11;;;;;;;16.48;7.47;;;;;;;;;;4935701;29;20509;-71
2023/08/18 13:22:37;;;;;;;9.25;5.68;;;;;;;;;;4932640;29;20030;-71
2023/08/18 13:36:29;;;;;;;11.30;6.13;;;;;;;;;;4966179;23;20120;-70
2023/08/18 13:38:56;;;;;;;13.82;5.75;;;;;;;;;;5009912;28;20029;-69
2023/08/18 13:41:22;;;;;;;6.05;4.55;;;;;;;;;;5008123;28;20080;-68
2023/08/18 13:43:48;;;;;;;8.90;5.25;;;;;;;;;;5012501;28;20040;-69
2023/08/18 13:46:14;;;;;;;7.50;5.75;;;;;;;;;;5007252;28;20119;-69
2023/08/18 13:48:40;;;;;;;7.63;5.40;;;;;;;;;;5004652;28;20080;-69
2023/08/18 13:51:06;;;;;;;5.75;5.10;;;;;;;;;;5003218;28;20084;-69
2023/08/18 13:53:33;;;;;;;7.35;5.70;;;;;;;;;;5006621;28;20061;-69
2023/08/18 13:55:59;;;;;;;13.45;5.80;;;;;;;;;;4983786;28;20073;-70
2023/08/18 13:58:25;;;;;;;6.20;5.20;;;;;;;;;;5002360;28;20426;-70
2023/08/18 14:00:52;;;;;;;9.80;4.70;;;;;;;;;;5002085;28;20034;-71
2023/08/18 14:03:18;;;;;;;9.70;5.75;;;;;;;;;;5005533;28;20056;-71
2023/08/18 14:05:44;;;;;;;6.30;4.70;;;;;;;;;;4986806;28;20038;-71
2023/08/18 14:08:11;;;;;;;7.53;6.40;;;;;;;;;;5009436;28;20034;-72
2023/08/18 14:10:37;;;;;;;9.32;6.18;;;;;;;;;;5005781;28;20041;-71
2023/08/18 14:13:03;;;;;;;9.25;5.68;;;;;;;;;;5006095;28;20075;-71
2023/08/18 14:15:29;;;;;;;6.45;5.25;;;;;;;;;;5008984;28;20041;-72
2023/08/18 14:17:56;;;;;;;6.97;4.47;;;;;;;;;;4985738;28;20231;-71
2023/08/18 14:20:22;;;;;;;8.00;5.03;;;;;;;;;;4987991;28;20045;-71
2023/08/18 14:22:52;;;;;;;7.95;5.50;;;;;;;;;;5002194;28;20128;-71
2023/08/18 14:25:19;;;;;;;5.90;5.18;;;;;;;;;;4982474;28;20129;-72
2023/08/18 14:27:45;;;;;;;6.20;5.57;;;;;;;;;;5003410;28;20042;-70
2023/08/18 14:30:12;;;;;;;11.43;5.93;;;;;;;;;;5007533;28;20387;-70